createdAt,value
2017-07-15T00:00:05.366Z,97.9
2017-07-15T00:01:05.417Z,99.04
2017-07-15T00:02:05.331Z,99.24
2017-07-15T00:03:05.336Z,98.75
2017-07-15T00:04:05.362Z,98.95
2017-07-15T00:05:05.440Z,99.43
2017-07-15T00:06:05.449Z,98.66
2017-07-15T00:07:05.451Z,98.18
2017-07-15T00:08:05.490Z,97.99
2017-07-15T00:09:05.534Z,96.47
2017-07-15T00:10:05.548Z,96.47
2017-07-15T00:11:05.698Z,96.47
2017-07-15T00:12:05.632Z,96.66
2017-07-15T00:13:05.658Z,96.27
2017-07-15T00:14:05.675Z,96.47
2017-07-15T00:15:05.732Z,96.37
2017-07-15T00:16:06.051Z,96.94
2017-07-15T00:17:05.801Z,96.47
2017-07-15T00:18:05.827Z,96.47
2017-07-15T00:19:05.860Z,96.27
2017-07-15T00:20:05.901Z,96.27
2017-07-15T00:21:06.012Z,95.51
2017-07-15T00:22:05.959Z,95.89
2017-07-15T00:23:05.997Z,96.75
2017-07-15T00:24:06.027Z,96.27
2017-07-15T00:25:06.062Z,96.27
2017-07-15T00:26:06.097Z,95.98
2017-07-15T00:27:06.251Z,95.79
2017-07-15T00:28:06.462Z,95.89
2017-07-15T00:29:06.193Z,95.7
2017-07-15T00:30:06.227Z,95.27
2017-07-15T00:31:06.424Z,96.99
2017-07-15T00:32:06.286Z,99.04
2017-07-15T00:33:06.401Z,98.9
2017-07-15T00:34:06.658Z,99.67
2017-07-15T00:35:06.401Z,99.76
2017-07-15T00:36:06.859Z,99.67
2017-07-15T00:37:06.551Z,98.71
2017-07-15T00:38:06.541Z,98.04
2017-07-15T00:39:06.528Z,97.56
2017-07-15T00:40:06.579Z,97.66
2017-07-15T00:41:06.586Z,97.95
2017-07-15T00:42:06.707Z,99.48
2017-07-15T00:43:06.687Z,98.33
2017-07-15T00:44:06.949Z,98.43
2017-07-15T00:45:06.914Z,99.67
2017-07-15T00:46:06.770Z,99.57
2017-07-15T00:47:06.766Z,99.38
2017-07-15T00:48:06.900Z,99.67
2017-07-15T00:49:06.849Z,99.38
2017-07-15T00:50:07.044Z,98.81
2017-07-15T00:51:06.948Z,98.81
2017-07-15T00:52:07.102Z,98.43
2017-07-15T00:53:06.957Z,98.04
2017-07-15T00:54:06.997Z,98.33
2017-07-15T00:55:07.039Z,98.61
2017-07-15T00:56:07.061Z,98.24
2017-07-15T00:57:07.111Z,99.48
2017-07-15T00:58:07.142Z,99.99
2017-07-15T00:59:07.171Z,99.99
2017-07-15T01:00:07.252Z,99.99
2017-07-15T01:01:07.222Z,99.67
2017-07-15T01:02:07.274Z,99.19
2017-07-15T01:03:07.312Z,98.9
2017-07-15T01:04:07.372Z,98.04
2017-07-15T01:05:07.356Z,98.04
2017-07-15T01:06:07.385Z,98.33
2017-07-15T01:07:07.438Z,98.24
2017-07-15T01:08:07.474Z,98.04
2017-07-15T01:09:07.505Z,97.47
2017-07-15T01:10:07.647Z,98.14
2017-07-15T01:11:07.572Z,97.95
2017-07-15T01:12:07.604Z,97.56
2017-07-15T01:13:07.635Z,97.37
2017-07-15T01:14:07.670Z,99.86
2017-07-15T01:15:07.701Z,99.29
2017-07-15T01:16:07.750Z,98.43
2017-07-15T01:17:07.774Z,99.04
2017-07-15T01:18:07.816Z,99.24
2017-07-15T01:19:07.835Z,98.57
2017-07-15T01:20:07.881Z,98.85
2017-07-15T01:21:07.881Z,99.43
2017-07-15T01:22:07.928Z,98.85
2017-07-15T01:23:07.964Z,99.99
2017-07-15T01:24:07.981Z,99.99
2017-07-15T01:25:08.063Z,99.99
2017-07-15T01:26:08.056Z,99.52
2017-07-15T01:27:08.085Z,99.99
2017-07-15T01:28:08.125Z,99.99
2017-07-15T01:29:08.149Z,99.71
2017-07-15T01:30:08.166Z,99.71
2017-07-15T01:31:08.333Z,99.99
2017-07-15T01:32:08.254Z,99.99
2017-07-15T01:33:08.272Z,99.99
2017-07-15T01:34:08.328Z,99.99
2017-07-15T01:35:08.360Z,99.99
2017-07-15T01:36:08.367Z,99.99
2017-07-15T01:37:08.452Z,99.99
2017-07-15T01:38:08.454Z,99.99
2017-07-15T01:39:08.468Z,99.99
2017-07-15T01:40:08.525Z,99.99
2017-07-15T01:41:08.556Z,99.99
2017-07-15T01:42:08.575Z,99.99
2017-07-15T01:43:08.599Z,99.99
2017-07-15T01:44:08.655Z,99.99
2017-07-15T01:45:08.682Z,99.99
2017-07-15T01:46:08.710Z,99.99
2017-07-15T01:47:08.749Z,99.99
2017-07-15T01:48:08.782Z,99.99
2017-07-15T01:49:08.814Z,99.99
2017-07-15T01:50:08.864Z,99.99
2017-07-15T01:51:08.880Z,99.99
2017-07-15T01:52:08.943Z,99.99
2017-07-15T01:53:08.966Z,99.99
2017-07-15T01:54:09.039Z,99.99
2017-07-15T01:55:09.023Z,99.99
2017-07-15T01:56:09.033Z,99.99
2017-07-15T01:57:09.065Z,99.99
2017-07-15T01:58:09.108Z,99.99
2017-07-15T01:59:09.150Z,99.99
2017-07-15T02:00:09.182Z,99.99
2017-07-15T02:01:09.212Z,99.99
2017-07-15T02:02:09.248Z,99.99
2017-07-15T02:03:09.273Z,99.99
2017-07-15T02:04:09.313Z,99.99
2017-07-15T02:05:09.344Z,99.99
2017-07-15T02:06:09.383Z,99.99
2017-07-15T02:07:09.406Z,99.99
2017-07-15T02:08:09.522Z,99.99
2017-07-15T02:09:09.479Z,99.99
2017-07-15T02:10:09.590Z,99.99
2017-07-15T02:11:09.521Z,99.99
2017-07-15T02:12:09.575Z,99.99
2017-07-15T02:13:09.588Z,99.99
2017-07-15T02:14:09.640Z,99.99
2017-07-15T02:15:09.680Z,99.99
2017-07-15T02:16:09.693Z,99.99
2017-07-15T02:17:09.738Z,99.99
2017-07-15T02:18:09.772Z,99.99
2017-07-15T02:19:09.787Z,99.99
2017-07-15T02:20:09.829Z,99.99
2017-07-15T02:21:09.865Z,99.99
2017-07-15T02:22:09.891Z,99.99
2017-07-15T02:23:09.925Z,99.99
2017-07-15T02:24:09.960Z,99.99
2017-07-15T02:25:09.991Z,99.99
2017-07-15T02:26:10.028Z,99.99
2017-07-15T02:27:10.066Z,99.99
2017-07-15T02:28:10.092Z,99.99
2017-07-15T02:29:10.381Z,99.99
2017-07-15T02:30:10.155Z,99.99
2017-07-15T02:31:10.195Z,99.99
2017-07-15T02:32:10.208Z,99.99
2017-07-15T02:33:10.244Z,99.99
2017-07-15T02:34:10.298Z,99.99
2017-07-15T02:35:10.308Z,99.99
2017-07-15T02:36:10.336Z,99.99
2017-07-15T02:37:10.389Z,99.99
2017-07-15T02:38:10.468Z,99.99
2017-07-15T02:39:10.464Z,99.99
2017-07-15T02:40:10.485Z,99.99
2017-07-15T02:41:10.526Z,99.99
2017-07-15T02:42:10.542Z,99.99
2017-07-15T02:43:10.586Z,99.99
2017-07-15T02:44:10.618Z,99.99
2017-07-15T02:45:10.647Z,99.99
2017-07-15T02:46:10.662Z,99.99
2017-07-15T02:47:10.707Z,99.99
2017-07-15T02:48:10.743Z,99.99
2017-07-15T02:49:10.772Z,99.99
2017-07-15T02:50:10.813Z,99.99
2017-07-15T02:51:10.845Z,99.99
2017-07-15T02:52:10.880Z,99.99
2017-07-15T02:53:10.911Z,99.99
2017-07-15T02:54:10.931Z,99.99
2017-07-15T02:55:10.976Z,99.99
2017-07-15T02:56:11.101Z,99.99
2017-07-15T02:57:11.026Z,99.99
2017-07-15T02:58:11.068Z,99.99
2017-07-15T02:59:11.106Z,99.99
2017-07-15T03:00:11.117Z,99.99
2017-07-15T03:01:11.527Z,99.99
2017-07-15T03:02:11.203Z,99.99
2017-07-15T03:03:11.230Z,99.99
2017-07-15T03:04:11.268Z,99.99
2017-07-15T03:05:11.313Z,99.99
2017-07-15T03:06:11.331Z,99.99
2017-07-15T03:07:11.365Z,99.99
2017-07-15T03:08:11.395Z,99.99
2017-07-15T03:09:11.432Z,99.99
2017-07-15T03:10:11.534Z,99.99
2017-07-15T03:11:11.500Z,99.99
2017-07-15T03:12:11.528Z,99.99
2017-07-15T03:13:11.560Z,99.99
2017-07-15T03:14:11.595Z,99.99
2017-07-15T03:15:11.630Z,99.99
2017-07-15T03:16:11.662Z,99.99
2017-07-15T03:17:11.694Z,99.99
2017-07-15T03:18:11.724Z,99.99
2017-07-15T03:19:11.771Z,99.99
2017-07-15T03:20:11.819Z,99.99
2017-07-15T03:21:11.816Z,99.99
2017-07-15T03:22:11.918Z,99.99
2017-07-15T03:23:11.932Z,99.99
2017-07-15T03:24:11.913Z,99.99
2017-07-15T03:25:11.945Z,99.99
2017-07-15T03:26:11.988Z,99.99
2017-07-15T03:27:12.222Z,99.99
2017-07-15T03:28:12.051Z,99.99
2017-07-15T03:29:12.157Z,99.99
2017-07-15T03:30:12.118Z,99.99
2017-07-15T03:31:12.152Z,99.99
2017-07-15T03:32:12.179Z,99.99
2017-07-15T03:33:12.189Z,99.99
2017-07-15T03:34:12.231Z,99.99
2017-07-15T03:35:12.276Z,99.99
2017-07-15T03:36:12.382Z,99.99
2017-07-15T03:37:12.334Z,99.99
2017-07-15T03:38:12.380Z,99.99
2017-07-15T03:39:12.412Z,99.99
2017-07-15T03:40:12.443Z,99.99
2017-07-15T03:41:12.455Z,99.99
2017-07-15T03:42:12.825Z,99.99
2017-07-15T03:43:12.541Z,99.99
2017-07-15T03:44:12.576Z,99.99
2017-07-15T03:45:12.596Z,99.99
2017-07-15T03:46:12.637Z,99.99
2017-07-15T03:47:12.824Z,99.99
2017-07-15T03:48:12.704Z,99.99
2017-07-15T03:49:12.740Z,99.99
2017-07-15T03:50:12.760Z,99.99
2017-07-15T03:51:12.808Z,99.99
2017-07-15T03:52:12.839Z,99.99
2017-07-15T03:53:12.868Z,99.99
2017-07-15T03:54:12.953Z,99.99
2017-07-15T03:55:12.938Z,99.99
2017-07-15T03:56:12.969Z,99.99
2017-07-15T03:57:12.997Z,99.99
2017-07-15T03:58:13.104Z,99.99
2017-07-15T03:59:13.049Z,99.99
2017-07-15T04:00:16.841Z,99.99
2017-07-15T04:01:16.875Z,99.99
2017-07-15T04:02:17.099Z,99.99
2017-07-15T04:03:17.127Z,99.99
2017-07-15T04:04:16.974Z,99.99
2017-07-15T04:05:16.958Z,99.99
2017-07-15T04:06:17.035Z,99.99
2017-07-15T04:07:17.018Z,99.99
2017-07-15T04:08:17.074Z,99.99
2017-07-15T04:09:17.116Z,99.99
2017-07-15T04:10:17.171Z,99.99
2017-07-15T04:11:17.159Z,99.99
2017-07-15T04:12:17.246Z,99.99
2017-07-15T04:13:17.247Z,99.99
2017-07-15T04:14:17.278Z,99.99
2017-07-15T04:15:17.319Z,99.99
2017-07-15T04:16:17.369Z,99.99
2017-07-15T04:17:17.398Z,99.99
2017-07-15T04:18:17.405Z,99.99
2017-07-15T04:19:17.468Z,99.82
2017-07-15T04:20:17.455Z,99.72
2017-07-15T04:21:17.537Z,99.63
2017-07-15T04:22:17.544Z,99.82
2017-07-15T04:23:17.574Z,99.82
2017-07-15T04:24:17.624Z,99.72
2017-07-15T04:25:17.645Z,99.82
2017-07-15T04:26:17.685Z,99.43
2017-07-15T04:27:17.713Z,99.34
2017-07-15T04:28:17.767Z,98.76
2017-07-15T04:29:17.782Z,98.62
2017-07-15T04:30:17.840Z,97.14
2017-07-15T04:31:17.882Z,95.75
2017-07-15T04:32:17.881Z,93.39
2017-07-15T04:33:17.915Z,92.14
2017-07-15T04:34:17.976Z,90.9
2017-07-15T04:35:17.987Z,90.56
2017-07-15T04:36:18.022Z,90.46
2017-07-15T04:37:18.032Z,90.94
2017-07-15T04:38:18.088Z,91.09
2017-07-15T04:39:18.101Z,91.66
2017-07-15T04:40:18.161Z,91.76
2017-07-15T04:41:18.167Z,92.58
2017-07-15T04:42:18.269Z,92.68
2017-07-15T04:43:18.441Z,93.15
2017-07-15T04:44:18.274Z,93.06
2017-07-15T04:45:18.339Z,93.44
2017-07-15T04:46:18.366Z,93.15
2017-07-15T04:47:18.386Z,93.06
2017-07-15T04:48:18.591Z,92.58
2017-07-15T04:49:18.478Z,92.33
2017-07-15T04:50:18.479Z,91.96
2017-07-15T04:51:18.539Z,91.66
2017-07-15T04:52:18.581Z,91.66
2017-07-15T04:53:18.638Z,91.76
2017-07-15T04:54:18.681Z,91.76
2017-07-15T04:55:18.692Z,91.47
2017-07-15T04:56:18.722Z,91.47
2017-07-15T04:57:18.755Z,91.47
2017-07-15T04:58:18.786Z,91.19
2017-07-15T04:59:18.846Z,91.09
2017-07-15T05:00:18.881Z,90.7
2017-07-15T05:01:18.922Z,90.56
2017-07-15T05:02:18.952Z,90.37
2017-07-15T05:03:18.992Z,90.37
2017-07-15T05:04:18.985Z,90.08
2017-07-15T05:05:19.042Z,89.69
2017-07-15T05:06:19.071Z,90.56
2017-07-15T05:07:19.127Z,90.08
2017-07-15T05:08:19.170Z,89.89
2017-07-15T05:09:19.184Z,89.89
2017-07-15T05:10:19.210Z,89.26
2017-07-15T05:11:19.270Z,88.87
2017-07-15T05:12:19.283Z,88.49
2017-07-15T05:13:19.303Z,88.2
2017-07-15T05:14:19.335Z,87.72
2017-07-15T05:15:19.391Z,87.92
2017-07-15T05:16:19.430Z,88.24
2017-07-15T05:17:19.468Z,88.53
2017-07-15T05:18:19.507Z,87.96
2017-07-15T05:19:19.535Z,87.57
2017-07-15T05:20:19.597Z,86.56
2017-07-15T05:21:19.603Z,86.27
2017-07-15T05:22:19.609Z,85.16
2017-07-15T05:23:19.676Z,84.19
2017-07-15T05:24:19.687Z,84.77
2017-07-15T05:25:19.730Z,84.29
2017-07-15T05:26:19.795Z,84.39
2017-07-15T05:27:19.810Z,84.48
2017-07-15T05:28:19.850Z,84.48
2017-07-15T05:29:19.892Z,83.72
2017-07-15T05:30:19.906Z,83.33
2017-07-15T05:31:19.995Z,83.56
2017-07-15T05:32:19.984Z,82.89
2017-07-15T05:33:20.067Z,82.6
2017-07-15T05:34:20.107Z,82.41
2017-07-15T05:35:20.096Z,82.21
2017-07-15T05:36:20.136Z,81.77
2017-07-15T05:37:20.189Z,81.68
2017-07-15T05:38:20.234Z,80.91
2017-07-15T05:39:20.288Z,80.33
2017-07-15T05:40:20.299Z,79.89
2017-07-15T05:41:20.360Z,78.83
2017-07-15T05:42:20.402Z,78
2017-07-15T05:43:20.407Z,77.51
2017-07-15T05:44:20.450Z,77.42
2017-07-15T05:45:20.508Z,77.13
2017-07-15T05:46:20.517Z,76.68
2017-07-15T05:47:20.537Z,74.54
2017-07-15T05:48:20.618Z,72.45
2017-07-15T05:49:20.665Z,71.08
2017-07-15T05:50:20.705Z,70.24
2017-07-15T05:51:20.714Z,69.66
2017-07-15T05:52:20.749Z,69.01
2017-07-15T05:53:20.814Z,68.63
2017-07-15T05:54:20.803Z,69.4
2017-07-15T05:55:20.846Z,69.5
2017-07-15T05:56:20.918Z,69.27
2017-07-15T05:57:20.947Z,70.5
2017-07-15T05:58:20.981Z,70.94
2017-07-15T05:59:21.045Z,71.97
2017-07-15T06:00:21.054Z,72.61
2017-07-15T06:01:21.104Z,73.38
2017-07-15T06:02:21.102Z,73.58
2017-07-15T06:03:21.178Z,73.77
2017-07-15T06:04:21.232Z,73.28
2017-07-15T06:05:21.222Z,74.06
2017-07-15T06:06:21.289Z,73.09
2017-07-15T06:07:21.304Z,73.54
2017-07-15T06:08:21.365Z,72.96
2017-07-15T06:09:21.405Z,72.9
2017-07-15T06:10:21.413Z,72.9
2017-07-15T06:11:21.477Z,73.19
2017-07-15T06:12:21.521Z,73.09
2017-07-15T06:13:21.532Z,73.09
2017-07-15T06:14:21.613Z,72.71
2017-07-15T06:15:21.609Z,73
2017-07-15T06:16:21.688Z,73.19
2017-07-15T06:17:21.712Z,73.28
2017-07-15T06:18:21.768Z,73.77
2017-07-15T06:19:21.761Z,73.67
2017-07-15T06:20:21.820Z,73.09
2017-07-15T06:21:22.289Z,72.06
2017-07-15T06:22:22.116Z,70.94
2017-07-15T06:23:23.189Z,70.3
2017-07-15T06:24:23.201Z,69.17
2017-07-15T06:25:22.259Z,68.47
2017-07-15T06:26:22.066Z,66.27
2017-07-15T06:27:22.134Z,64.11
2017-07-15T06:28:22.764Z,62.13
2017-07-15T06:29:22.215Z,60.74
2017-07-15T06:30:26.078Z,58.97
2017-07-15T06:31:22.256Z,57.09
2017-07-15T06:32:22.494Z,55.38
2017-07-15T06:33:22.533Z,54.44
2017-07-15T06:34:22.991Z,54.14
2017-07-15T06:35:22.636Z,53.49
2017-07-15T06:36:22.456Z,52.37
2017-07-15T06:37:22.676Z,51.9
2017-07-15T06:38:22.525Z,50.59
2017-07-15T06:39:22.574Z,48.38
2017-07-15T06:40:22.607Z,47.91
2017-07-15T06:41:25.866Z,47.35
2017-07-15T06:42:22.912Z,47.17
2017-07-15T06:43:24.154Z,46.31
2017-07-15T06:44:22.783Z,45.92
2017-07-15T06:45:23.061Z,45.95
2017-07-15T06:46:22.880Z,45.87
2017-07-15T06:47:22.892Z,45.48
2017-07-15T06:48:23.382Z,44.91
2017-07-15T06:49:22.997Z,44.42
2017-07-15T06:50:23.501Z,45.87
2017-07-15T06:51:23.295Z,45.57
2017-07-15T06:52:23.513Z,45.87
2017-07-15T06:53:23.345Z,44.4
2017-07-15T06:54:23.616Z,44.49
2017-07-15T06:55:23.431Z,44.98
2017-07-15T06:56:23.293Z,44.32
2017-07-15T06:57:24.376Z,43.57
2017-07-15T06:58:23.592Z,42.34
2017-07-15T06:59:23.403Z,43.03
2017-07-15T07:00:23.423Z,41.08
2017-07-15T07:01:23.512Z,42.54
2017-07-15T07:02:23.536Z,43.38
2017-07-15T07:03:23.598Z,43.18
2017-07-15T07:04:23.616Z,42.2
2017-07-15T07:05:23.671Z,43.28
2017-07-15T07:06:23.706Z,43.46
2017-07-15T07:07:23.772Z,44.32
2017-07-15T07:08:23.788Z,45.75
2017-07-15T07:09:23.818Z,46.74
2017-07-15T07:10:23.853Z,48.33
2017-07-15T07:11:23.893Z,48.87
2017-07-15T07:12:23.969Z,48.11
2017-07-15T07:13:24.014Z,47.06
2017-07-15T07:14:24.047Z,46.5
2017-07-15T07:15:24.111Z,45.98
2017-07-15T07:16:24.122Z,45.53
2017-07-15T07:17:24.151Z,45.18
2017-07-15T07:18:24.238Z,44.15
2017-07-15T07:19:24.283Z,43.55
2017-07-15T07:20:24.312Z,43.28
2017-07-15T07:21:24.374Z,41.43
2017-07-15T07:22:24.412Z,41.17
2017-07-15T07:23:24.416Z,40.8
2017-07-15T07:24:24.458Z,40.45
2017-07-15T07:25:24.515Z,39.7
2017-07-15T07:26:24.561Z,39.14
2017-07-15T07:27:24.618Z,38.49
2017-07-15T07:28:24.644Z,37.91
2017-07-15T07:29:24.691Z,38.03
2017-07-15T07:30:24.774Z,36.92
2017-07-15T07:31:24.787Z,38.07
2017-07-15T07:32:24.797Z,39.18
2017-07-15T07:33:24.899Z,40.69
2017-07-15T07:34:24.940Z,42
2017-07-15T07:35:24.933Z,42.47
2017-07-15T07:36:25.017Z,43.33
2017-07-15T07:37:25.047Z,45.24
2017-07-15T07:38:25.118Z,46.62
2017-07-15T07:39:25.103Z,47.45
2017-07-15T07:40:25.182Z,47.7
2017-07-15T07:41:25.241Z,48.38
2017-07-15T07:42:25.261Z,48.7
2017-07-15T07:43:25.310Z,48.97
2017-07-15T07:44:25.368Z,48.77
2017-07-15T07:45:25.371Z,47.26
2017-07-15T07:46:25.523Z,46.44
2017-07-15T07:47:25.502Z,45.61
2017-07-15T07:48:25.515Z,45.43
2017-07-15T07:49:25.527Z,44.45
2017-07-15T07:50:25.605Z,43.51
2017-07-15T07:51:25.943Z,42.38
2017-07-15T07:52:25.663Z,41.55
2017-07-15T07:53:25.739Z,40.33
2017-07-15T07:54:25.770Z,40.35
2017-07-15T07:55:25.827Z,41.59
2017-07-15T07:56:25.859Z,42.41
2017-07-15T07:57:25.935Z,42.1
2017-07-15T07:58:25.926Z,41.33
2017-07-15T07:59:25.994Z,40.39
2017-07-15T08:00:26.035Z,39.95
2017-07-15T08:01:26.094Z,38.61
2017-07-15T08:02:26.132Z,38.15
2017-07-15T08:03:26.140Z,38.92
2017-07-15T08:04:26.211Z,39.76
2017-07-15T08:05:26.260Z,40.55
2017-07-15T08:06:26.310Z,41.17
2017-07-15T08:07:26.318Z,40.56
2017-07-15T08:08:26.394Z,41.25
2017-07-15T08:09:26.456Z,42.4
2017-07-15T08:10:26.507Z,44.01
2017-07-15T08:11:26.530Z,45.39
2017-07-15T08:12:26.561Z,46.23
2017-07-15T08:13:26.586Z,47.08
2017-07-15T08:14:26.624Z,46.79
2017-07-15T08:15:26.693Z,47.36
2017-07-15T08:16:26.761Z,46.98
2017-07-15T08:17:26.802Z,45.47
2017-07-15T08:18:26.825Z,43.59
2017-07-15T08:19:26.880Z,42.3
2017-07-15T08:20:26.925Z,41.16
2017-07-15T08:21:26.929Z,40.03
2017-07-15T08:22:27.016Z,39.4
2017-07-15T08:23:27.058Z,38.55
2017-07-15T08:24:27.082Z,36.9
2017-07-15T08:25:27.124Z,36.72
2017-07-15T08:26:27.178Z,36.43
2017-07-15T08:27:27.220Z,36.84
2017-07-15T08:28:27.239Z,37.41
2017-07-15T08:29:27.336Z,38.73
2017-07-15T08:30:27.323Z,41.27
2017-07-15T08:31:27.394Z,42.72
2017-07-15T08:32:27.480Z,43.27
2017-07-15T08:33:27.481Z,42.61
2017-07-15T08:34:27.526Z,41.88
2017-07-15T08:35:27.593Z,39.7
2017-07-15T08:36:27.592Z,38.77
2017-07-15T08:37:27.628Z,38.21
2017-07-15T08:38:27.676Z,38.47
2017-07-15T08:39:27.718Z,38.93
2017-07-15T08:40:27.822Z,40.45
2017-07-15T08:41:27.820Z,41.37
2017-07-15T08:42:27.881Z,42.04
2017-07-15T08:43:27.924Z,43.27
2017-07-15T08:44:27.991Z,45.37
2017-07-15T08:45:28.013Z,46.28
2017-07-15T08:46:28.021Z,47.28
2017-07-15T08:47:28.097Z,48.22
2017-07-15T08:48:28.164Z,49.37
2017-07-15T08:49:28.185Z,49.93
2017-07-15T08:50:28.227Z,50.97
2017-07-15T08:51:28.298Z,51.73
2017-07-15T08:52:28.346Z,52.38
2017-07-15T08:53:28.325Z,52.84
2017-07-15T08:54:28.424Z,53.33
2017-07-15T08:55:28.464Z,53.99
2017-07-15T08:56:28.513Z,53.96
2017-07-15T08:57:28.524Z,53.79
2017-07-15T08:58:28.589Z,51.31
2017-07-15T08:59:28.632Z,48.78
2017-07-15T09:00:28.642Z,46.89
2017-07-15T09:01:28.704Z,46.57
2017-07-15T09:02:28.731Z,46.77
2017-07-15T09:03:28.749Z,47.14
2017-07-15T09:04:28.840Z,47.02
2017-07-15T09:05:28.829Z,47.67
2017-07-15T09:06:28.927Z,48.34
2017-07-15T09:07:28.966Z,49.02
2017-07-15T09:08:28.965Z,48.9
2017-07-15T09:09:29.024Z,49.02
2017-07-15T09:10:29.065Z,49.32
2017-07-15T09:11:29.089Z,49.19
2017-07-15T09:12:29.118Z,49.29
2017-07-15T09:13:29.194Z,48.22
2017-07-15T09:14:29.234Z,46.82
2017-07-15T09:15:29.269Z,45.44
2017-07-15T09:16:29.339Z,44.29
2017-07-15T09:17:29.366Z,43.8
2017-07-15T09:18:29.406Z,42.79
2017-07-15T09:19:29.438Z,42.35
2017-07-15T09:20:29.512Z,41.02
2017-07-15T09:21:29.559Z,39.92
2017-07-15T09:22:29.554Z,39.11
2017-07-15T09:23:29.604Z,38.73
2017-07-15T09:24:29.636Z,38.96
2017-07-15T09:25:29.675Z,38.83
2017-07-15T09:26:29.743Z,40.27
2017-07-15T09:27:29.814Z,41.22
2017-07-15T09:28:29.834Z,41.11
2017-07-15T09:29:29.857Z,40.23
2017-07-15T09:30:29.905Z,39.01
2017-07-15T09:31:29.940Z,38.2
2017-07-15T09:32:30.005Z,37.46
2017-07-15T09:33:30.033Z,36.13
2017-07-15T09:34:30.125Z,35.37
2017-07-15T09:35:30.144Z,35.5
2017-07-15T09:36:30.182Z,35.52
2017-07-15T09:37:30.245Z,36.76
2017-07-15T09:38:30.303Z,39.12
2017-07-15T09:39:30.328Z,40.33
2017-07-15T09:40:30.334Z,42.18
2017-07-15T09:41:30.435Z,43.39
2017-07-15T09:42:30.431Z,45.19
2017-07-15T09:43:30.523Z,46.5
2017-07-15T09:44:30.536Z,46.94
2017-07-15T09:45:30.592Z,46.67
2017-07-15T09:46:30.651Z,45.83
2017-07-15T09:47:30.647Z,44.21
2017-07-15T09:48:30.743Z,42.06
2017-07-15T09:49:30.742Z,40
2017-07-15T09:50:30.803Z,39.46
2017-07-15T09:51:30.956Z,37.66
2017-07-15T09:52:30.893Z,36.11
2017-07-15T09:53:30.944Z,36.07
2017-07-15T09:54:30.953Z,35.13
2017-07-15T09:55:31.030Z,34.56
2017-07-15T09:56:31.251Z,34.78
2017-07-15T09:57:31.144Z,35.04
2017-07-15T09:58:31.169Z,35.97
2017-07-15T09:59:31.234Z,35.57
2017-07-15T10:00:31.252Z,34.8
2017-07-15T10:01:31.333Z,34.83
2017-07-15T10:02:31.364Z,34.45
2017-07-15T10:03:31.396Z,34.27
2017-07-15T10:04:31.455Z,33.18
2017-07-15T10:05:31.457Z,33
2017-07-15T10:06:31.551Z,33.47
2017-07-15T10:07:31.610Z,34.61
2017-07-15T10:08:31.662Z,35.85
2017-07-15T10:09:31.699Z,37.18
2017-07-15T10:10:31.728Z,38.71
2017-07-15T10:11:31.749Z,40.41
2017-07-15T10:12:31.818Z,42.1
2017-07-15T10:13:31.859Z,43.61
2017-07-15T10:14:31.936Z,44.73
2017-07-15T10:15:31.956Z,44.7
2017-07-15T10:16:31.974Z,43.84
2017-07-15T10:17:32.065Z,44.12
2017-07-15T10:18:32.065Z,44.46
2017-07-15T10:19:32.111Z,45.67
2017-07-15T10:20:32.154Z,45.86
2017-07-15T10:21:32.200Z,45.59
2017-07-15T10:22:32.261Z,44.76
2017-07-15T10:23:32.333Z,44.46
2017-07-15T10:24:32.335Z,45.4
2017-07-15T10:25:32.394Z,45.28
2017-07-15T10:26:32.472Z,44.73
2017-07-15T10:27:32.479Z,44.32
2017-07-15T10:28:32.522Z,43.41
2017-07-15T10:29:32.573Z,41.72
2017-07-15T10:30:32.615Z,40.23
2017-07-15T10:31:32.658Z,37.76
2017-07-15T10:32:32.697Z,37.29
2017-07-15T10:33:32.768Z,37.59
2017-07-15T10:34:32.769Z,37.59
2017-07-15T10:35:32.829Z,37.62
2017-07-15T10:36:32.879Z,37.32
2017-07-15T10:37:32.947Z,36.67
2017-07-15T10:38:32.963Z,36.43
2017-07-15T10:39:32.984Z,35.47
2017-07-15T10:40:33.072Z,36.44
2017-07-15T10:41:33.068Z,37.68
2017-07-15T10:42:33.143Z,39.65
2017-07-15T10:43:33.180Z,41.25
2017-07-15T10:44:33.225Z,42.18
2017-07-15T10:45:33.277Z,42.63
2017-07-15T10:46:33.310Z,43.47
2017-07-15T10:47:33.455Z,43.94
2017-07-15T10:48:33.374Z,43.45
2017-07-15T10:49:33.416Z,44.53
2017-07-15T10:50:33.465Z,44.7
2017-07-15T10:51:33.546Z,44.95
2017-07-15T10:52:33.789Z,46.47
2017-07-15T10:53:33.629Z,47.11
2017-07-15T10:54:33.628Z,48.93
2017-07-15T10:55:33.663Z,49.95
2017-07-15T10:56:33.712Z,50.68
2017-07-15T10:57:33.758Z,52.12
2017-07-15T10:58:33.815Z,53.33
2017-07-15T10:59:33.859Z,53.81
2017-07-15T11:00:33.894Z,54.25
2017-07-15T11:01:33.955Z,55.19
2017-07-15T11:02:34.016Z,56.24
2017-07-15T11:03:34.023Z,56.34
2017-07-15T11:04:34.048Z,56.11
2017-07-15T11:05:34.078Z,55.55
2017-07-15T11:06:34.154Z,54.35
2017-07-15T11:07:34.182Z,53.89
2017-07-15T11:08:34.230Z,53.2
2017-07-15T11:09:34.291Z,53.67
2017-07-15T11:10:34.338Z,52.69
2017-07-15T11:11:34.373Z,51.97
2017-07-15T11:12:34.410Z,49.46
2017-07-15T11:13:34.457Z,46.65
2017-07-15T11:14:34.481Z,45.17
2017-07-15T11:15:34.513Z,43.66
2017-07-15T11:16:34.527Z,42.9
2017-07-15T11:17:34.590Z,43.47
2017-07-15T11:18:34.656Z,44.48
2017-07-15T11:19:34.684Z,45.59
2017-07-15T11:20:34.713Z,46.33
2017-07-15T11:21:34.763Z,46.14
2017-07-15T11:22:34.787Z,46.41
2017-07-15T11:23:34.832Z,46.41
2017-07-15T11:24:34.903Z,46.5
2017-07-15T11:25:34.944Z,46.7
2017-07-15T11:26:34.978Z,47.36
2017-07-15T11:27:34.968Z,48.32
2017-07-15T11:28:35.060Z,48.02
2017-07-15T11:29:35.078Z,48.41
2017-07-15T11:30:35.140Z,47.05
2017-07-15T11:31:35.155Z,46.39
2017-07-15T11:32:35.193Z,45.65
2017-07-15T11:33:35.263Z,43.85
2017-07-15T11:34:35.256Z,42.18
2017-07-15T11:35:35.325Z,41.17
2017-07-15T11:36:35.390Z,40.43
2017-07-15T11:37:35.377Z,40.23
2017-07-15T11:38:35.444Z,41.35
2017-07-15T11:39:35.473Z,42.57
2017-07-15T11:40:35.520Z,44.19
2017-07-15T11:41:35.567Z,45.72
2017-07-15T11:42:35.568Z,46.28
2017-07-15T11:43:35.642Z,46.72
2017-07-15T11:44:35.674Z,47.66
2017-07-15T11:45:35.761Z,49
2017-07-15T11:46:35.758Z,49.83
2017-07-15T11:47:35.773Z,50.68
2017-07-15T11:48:35.813Z,51.92
2017-07-15T11:49:35.879Z,52.19
2017-07-15T11:50:35.898Z,52.55
2017-07-15T11:51:35.947Z,52.94
2017-07-15T11:52:35.971Z,53.11
2017-07-15T11:53:36.050Z,53.96
2017-07-15T11:54:36.121Z,54.25
2017-07-15T11:55:36.118Z,54.71
2017-07-15T11:56:36.159Z,54.32
2017-07-15T11:57:36.167Z,54.52
2017-07-15T11:58:36.237Z,54.9
2017-07-15T11:59:36.279Z,55.46
2017-07-15T12:00:36.317Z,56.04
2017-07-15T12:01:36.380Z,56.62
2017-07-15T12:02:36.387Z,56.62
2017-07-15T12:03:36.453Z,57.28
2017-07-15T12:04:36.478Z,57.67
2017-07-15T12:05:36.488Z,58.25
2017-07-15T12:06:36.581Z,57.96
2017-07-15T12:07:36.573Z,57.67
2017-07-15T12:08:36.609Z,58.15
2017-07-15T12:09:36.672Z,57.76
2017-07-15T12:10:36.744Z,57.57
2017-07-15T12:11:36.733Z,57.76
2017-07-15T12:12:36.769Z,58.7
2017-07-15T12:13:36.869Z,58.9
2017-07-15T12:14:36.889Z,59.36
2017-07-15T12:15:36.940Z,60.52
2017-07-15T12:16:36.951Z,60.58
2017-07-15T12:17:36.990Z,60.68
2017-07-15T12:18:37.051Z,60.49
2017-07-15T12:19:37.068Z,60.58
2017-07-15T12:20:37.087Z,60.65
2017-07-15T12:21:37.172Z,60.85
2017-07-15T12:22:37.162Z,60.46
2017-07-15T12:23:37.200Z,60.46
2017-07-15T12:24:37.269Z,60.94
2017-07-15T12:25:37.269Z,61.88
2017-07-15T12:26:37.314Z,61.59
2017-07-15T12:27:37.401Z,61.69
2017-07-15T12:28:37.418Z,61.98
2017-07-15T12:29:37.434Z,61.98
2017-07-15T12:30:37.467Z,61.49
2017-07-15T12:31:37.534Z,62.27
2017-07-15T12:32:37.578Z,62.14
2017-07-15T12:33:37.645Z,61.95
2017-07-15T12:34:37.652Z,62.34
2017-07-15T12:35:37.686Z,62.59
2017-07-15T12:36:37.725Z,62.88
2017-07-15T12:37:37.735Z,63.34
2017-07-15T12:38:37.798Z,64.01
2017-07-15T12:39:37.859Z,63.43
2017-07-15T12:40:37.876Z,63.21
2017-07-15T12:41:37.890Z,64.05
2017-07-15T12:42:37.976Z,64.24
2017-07-15T12:43:38.019Z,64.63
2017-07-15T12:44:38.011Z,64.53
2017-07-15T12:45:38.098Z,64.72
2017-07-15T12:46:38.086Z,65.5
2017-07-15T12:47:38.180Z,65.59
2017-07-15T12:48:38.183Z,65.85
2017-07-15T12:49:38.252Z,65.95
2017-07-15T12:50:38.258Z,66.33
2017-07-15T12:51:38.293Z,66.63
2017-07-15T12:52:38.307Z,66.53
2017-07-15T12:53:38.382Z,66.82
2017-07-15T12:54:38.389Z,67.11